Savannah, GA

3:49 PM EST on January 24, 2017 (GMT -0500)
Wilson Landing Marina | | Change Station
Active Advisory: Flood Warning

Elev 8 ft 32.21 °N, 80.88 °W | Updated 207 days ago

Rain
Rain
80.4 °F
Feels Like 87 °F
N
0.0
Wind Variable Wind from SSW
Gusts 1.0 mph

Today
High -- | Low -- °F
--% Chance of Precip.
Yesterday
High -- | Low -- °F
Precip. -- in
Pressure 29.75 in
Visibility 10.0 miles
Clouds Clear
Heat Index 87 °F
Dew Point 77.2 °F
Humidity 90%
Rainfall in
Snow Depth Not available.
7:22 AM 5:51 PM
Waning Crescent, 10% visible
METAR KSVN 241958Z AUTO 30011KT 10SM CLR 20/11 A2974 RMK AO2 SLP074 T02000105
Pressure 29.75 in
Visibility 10.0 miles
Clouds Clear
Heat Index 87 °F
Dew Point 77.2 °F
Humidity 90%
Rainfall in
Snow Depth Not available.
7:22 AM 5:51 PM
Waning Crescent, 10% visible
METAR KSVN 241958Z AUTO 30011KT 10SM CLR 20/11 A2974 RMK AO2 SLP074 T02000105

Get Your Daily Forecast Email!

Thanks for signing up!

Be on the lookout for a verification email in your inbox.

You'll start receiving the daily forecast at 8 AM.

×

10-Day Weather Forecast

Almanac

Astronomy

Jan. 24, 2017 Rise Set
Actual Time
Civil Twilight
Nautical Twilight
Astronomical Twilight
Moon
Length of Visible Light
Length of Day
Tomorrow will be .
, % of the Moon is Illuminated

Today's Extremes

State Highs State Lows

Community

WunderPhotos

Upload Photos

1,962,540 photos uploaded!

WunderBlog® & News

Nearby

Air Quality

  Air Quality AQ Index Pollutant
Not available.

Snow Depth

Station Depth Elevation

Earthquake Activity

City Distance Mag. Time & Date
Minimum magnitude displayed is 2.5.

Coastal Water Temperatures

Place Temperature

Stations

Nearby Weather Stations

Station Location Temp. Windchill Dew Point Humidity Wind Precip. Elev Updated Type
                   

Watches & Warnings

Flood Warning
Issued: 9:29 AM EST Jan. 24, 2017 – National Weather Service

The Flood Warning continues for
the Ogeechee river near Eden.
* At 9 am Tuesday the stage was 11.7 feet.
* Flood stage is 11.0 feet.
* Minor flooding is occurring.
* Forecast, the river will continue rising to near 11.9 feet by early
Wednesday afternoon. Additional rises may be possible thereafter.
* At 12.0 feet, water encroaches on some homes along dashers Landing
Road and Yarbrough Landing Road. Davis Landing Road also becomes
impassable.


Lat... Lon 3246 8160 3252 8152 3227 8140 3208 8133
          3206 8143 3223 8150